Time;durP1;ratioP1;P1;durP2;ratioP2;P2;SDS_P1;SDS_P2;PMS_P1;PMS_P2;Temp;Humidity;BMP_temperature;BMP_pressure;BME280_temperature;BME280_humidity;BME280_pressure;Samples;Min_cycle;Max_cycle;Signal;HPM_P1;HPM_P2
2023/01/30 00:04:32;;;;;;;39.35;12.63;;;;;;;;;;10424933;28;20032;-76
2023/01/30 00:09:32;;;;;;;23.92;10.75;;;;;;;;;;10425271;28;20021;-72
2023/01/30 00:14:32;;;;;;;26.83;11.52;;;;;;;;;;10425523;28;20078;-74
2023/01/30 00:19:32;;;;;;;30.85;13.13;;;;;;;;;;10424700;28;20021;-75
2023/01/30 00:24:33;;;;;;;27.83;12.52;;;;;;;;;;10424834;28;20503;-75
2023/01/30 00:29:33;;;;;;;32.03;12.43;;;;;;;;;;10424771;28;20033;-77
2023/01/30 00:34:33;;;;;;;33.45;12.32;;;;;;;;;;10424986;28;20130;-77
2023/01/30 00:39:34;;;;;;;32.08;13.02;;;;;;;;;;10424371;28;20029;-76
2023/01/30 00:49:53;;;;;;;28.92;12.13;;;;;;;;;;10442506;28;20067;-74
2023/01/30 00:54:53;;;;;;;29.15;13.32;;;;;;;;;;10423692;28;20107;-75
2023/01/30 00:59:53;;;;;;;37.00;14.25;;;;;;;;;;10412039;28;20029;-77
2023/01/30 01:04:53;;;;;;;34.37;13.60;;;;;;;;;;10424219;28;20140;-72
2023/01/30 01:09:54;;;;;;;32.15;12.70;;;;;;;;;;10423434;28;20017;-76
2023/01/30 01:14:54;;;;;;;32.38;13.48;;;;;;;;;;10439736;23;20045;-76
2023/01/30 01:19:54;;;;;;;32.00;12.27;;;;;;;;;;10458769;28;20103;-76
2023/01/30 01:24:54;;;;;;;29.63;12.25;;;;;;;;;;10464359;28;20032;-75
2023/01/30 01:29:55;;;;;;;28.27;13.02;;;;;;;;;;10482470;28;20094;-73
2023/01/30 01:34:55;;;;;;;33.15;13.35;;;;;;;;;;10464737;28;20036;-72
2023/01/30 01:45:19;;;;;;;29.13;12.43;;;;;;;;;;10400339;28;20045;-77
2023/01/30 01:50:25;;;;;;;33.75;12.32;;;;;;;;;;10416124;28;20033;-76
2023/01/30 01:55:26;;;;;;;36.55;13.52;;;;;;;;;;10399211;28;20047;-73
2023/01/30 02:00:26;;;;;;;26.60;10.85;;;;;;;;;;10396866;28;20032;-75
2023/01/30 02:05:28;;;;;;;27.27;11.17;;;;;;;;;;10366299;28;20033;-72
2023/01/30 02:10:38;;;;;;;30.35;10.77;;;;;;;;;;10422493;28;20558;-76
2023/01/30 02:15:38;;;;;;;24.58;11.68;;;;;;;;;;10381400;28;20037;-71
2023/01/30 02:20:38;;;;;;;24.83;11.00;;;;;;;;;;10392910;28;20029;-72
2023/01/30 02:25:51;;;;;;;24.52;11.23;;;;;;;;;;10405884;28;20017;-76
2023/01/30 02:30:54;;;;;;;25.70;11.32;;;;;;;;;;10421842;28;20488;-77
2023/01/30 02:36:02;;;;;;;35.10;11.13;;;;;;;;;;10421489;28;20613;-75
2023/01/30 02:41:03;;;;;;;21.92;10.60;;;;;;;;;;10402695;28;20133;-75
2023/01/30 02:46:41;;;;;;;25.92;10.55;;;;;;;;;;10365287;28;20525;-81
2023/01/30 02:51:42;;;;;;;27.08;9.32;;;;;;;;;;10262195;28;20022;-74
2023/01/30 02:56:47;;;;;;;23.38;10.35;;;;;;;;;;10344881;28;20022;-76
2023/01/30 03:02:06;;;;;;;26.25;10.45;;;;;;;;;;10378204;28;20076;-70
2023/01/30 03:07:06;;;;;;;21.90;9.43;;;;;;;;;;10405362;28;20454;-73
2023/01/30 03:12:25;;;;;;;24.38;10.43;;;;;;;;;;10406278;28;20021;-72
2023/01/30 03:17:25;;;;;;;29.13;10.32;;;;;;;;;;10421976;28;20553;-72
2023/01/30 03:22:26;;;;;;;24.98;10.02;;;;;;;;;;10402976;28;20033;-76
2023/01/30 03:27:26;;;;;;;31.45;10.32;;;;;;;;;;10403495;28;20026;-76
2023/01/30 03:32:27;;;;;;;25.75;9.90;;;;;;;;;;10402661;28;20021;-76
2023/01/30 03:37:27;;;;;;;25.08;10.70;;;;;;;;;;10402848;28;20023;-76
2023/01/30 03:42:27;;;;;;;21.63;8.75;;;;;;;;;;10418433;28;20049;-76
2023/01/30 03:47:27;;;;;;;21.85;9.93;;;;;;;;;;10402181;28;20096;-76
2023/01/30 03:52:28;;;;;;;22.65;9.45;;;;;;;;;;10397090;28;20017;-77
2023/01/30 03:57:28;;;;;;;27.42;10.20;;;;;;;;;;10361343;28;20095;-76
2023/01/30 04:02:28;;;;;;;29.77;9.82;;;;;;;;;;10361563;28;20463;-73
2023/01/30 04:07:28;;;;;;;21.77;9.68;;;;;;;;;;10360690;28;20018;-76
2023/01/30 04:12:29;;;;;;;25.25;10.85;;;;;;;;;;10376864;28;20028;-76
2023/01/30 04:17:29;;;;;;;20.77;9.20;;;;;;;;;;10359923;28;20511;-76
2023/01/30 04:22:29;;;;;;;22.70;10.50;;;;;;;;;;10375817;28;20403;-71
2023/01/30 04:27:30;;;;;;;24.60;9.87;;;;;;;;;;10359749;28;20021;-78
2023/01/30 04:32:30;;;;;;;22.23;10.82;;;;;;;;;;10366865;28;20347;-74
2023/01/30 04:37:30;;;;;;;28.08;10.57;;;;;;;;;;10400362;28;20025;-74
2023/01/30 04:42:30;;;;;;;28.95;12.02;;;;;;;;;;10379163;28;20563;-77
2023/01/30 04:47:31;;;;;;;23.38;10.20;;;;;;;;;;10399861;28;20850;-75
2023/01/30 04:52:31;;;;;;;32.85;10.13;;;;;;;;;;10377459;28;20531;-75
2023/01/30 04:57:31;;;;;;;29.42;10.13;;;;;;;;;;10389795;28;20505;-72
2023/01/30 05:02:31;;;;;;;24.30;9.90;;;;;;;;;;10374672;28;20084;-75
2023/01/30 05:07:32;;;;;;;31.17;13.18;;;;;;;;;;10371901;28;20017;-79
2023/01/30 05:12:32;;;;;;;38.05;14.27;;;;;;;;;;10367923;28;20026;-74
2023/01/30 05:17:33;;;;;;;30.02;11.52;;;;;;;;;;10371889;28;20116;-72
2023/01/30 05:22:33;;;;;;;30.30;12.77;;;;;;;;;;10372323;28;20405;-73
2023/01/30 05:27:33;;;;;;;31.25;12.65;;;;;;;;;;10357123;28;20026;-72
2023/01/30 05:32:34;;;;;;;24.63;12.17;;;;;;;;;;10361327;28;20033;-76
2023/01/30 05:37:34;;;;;;;33.40;12.85;;;;;;;;;;10359068;28;20574;-73
2023/01/30 05:42:34;;;;;;;35.72;14.85;;;;;;;;;;10361458;28;20085;-73
2023/01/30 05:47:35;;;;;;;33.95;14.48;;;;;;;;;;10378177;28;20045;-72
2023/01/30 05:52:35;;;;;;;35.90;12.60;;;;;;;;;;10366319;28;20100;-76
2023/01/30 05:57:35;;;;;;;22.35;9.70;;;;;;;;;;10381611;28;20014;-73
2023/01/30 06:02:35;;;;;;;39.50;15.77;;;;;;;;;;10361235;28;20034;-77
2023/01/30 06:07:36;;;;;;;43.13;15.57;;;;;;;;;;10363777;28;20018;-73
2023/01/30 06:12:36;;;;;;;44.90;15.13;;;;;;;;;;10379851;28;20104;-75
2023/01/30 06:17:40;;;;;;;36.43;15.63;;;;;;;;;;10379911;28;20039;-70
2023/01/30 06:22:41;;;;;;;39.95;16.85;;;;;;;;;;10369160;28;20025;-72
2023/01/30 06:27:42;;;;;;;41.55;17.85;;;;;;;;;;10390843;28;20018;-79
2023/01/30 06:32:42;;;;;;;49.78;17.38;;;;;;;;;;10380146;28;20025;-73
2023/01/30 06:37:43;;;;;;;48.30;17.40;;;;;;;;;;10364370;28;20480;-73
2023/01/30 06:42:47;;;;;;;33.75;13.30;;;;;;;;;;10361857;28;20049;-72
2023/01/30 06:47:48;;;;;;;36.65;14.60;;;;;;;;;;10338877;28;20022;-77
2023/01/30 06:52:50;;;;;;;40.45;16.52;;;;;;;;;;10333481;28;20328;-77
2023/01/30 06:57:59;;;;;;;46.40;16.10;;;;;;;;;;10389342;28;20021;-72
2023/01/30 07:02:59;;;;;;;50.53;18.27;;;;;;;;;;10377903;28;20034;-72
2023/01/30 07:08:00;;;;;;;42.47;19.20;;;;;;;;;;10378200;28;20018;-73
2023/01/30 07:13:00;;;;;;;45.40;16.45;;;;;;;;;;10363684;28;20022;-72
2023/01/30 07:18:01;;;;;;;43.33;19.08;;;;;;;;;;10378609;28;20136;-72
2023/01/30 07:23:01;;;;;;;40.97;17.23;;;;;;;;;;10344907;28;20014;-71
2023/01/30 07:28:01;;;;;;;45.33;17.20;;;;;;;;;;10362303;28;20014;-73
2023/01/30 07:33:03;;;;;;;43.40;17.93;;;;;;;;;;10344700;28;20029;-77
2023/01/30 07:38:03;;;;;;;49.22;19.33;;;;;;;;;;10360911;28;20416;-72
2023/01/30 07:43:05;;;;;;;45.17;18.30;;;;;;;;;;10360007;28;20116;-72
2023/01/30 07:48:06;;;;;;;43.92;18.88;;;;;;;;;;10362163;28;20014;-72
2023/01/30 07:53:07;;;;;;;43.85;16.80;;;;;;;;;;10361578;28;20496;-73
2023/01/30 07:58:10;;;;;;;43.83;15.77;;;;;;;;;;10359853;28;20083;-76
2023/01/30 08:03:14;;;;;;;32.67;13.25;;;;;;;;;;10376726;28;20030;-73
2023/01/30 08:08:15;;;;;;;36.30;15.18;;;;;;;;;;10360966;28;20022;-73
2023/01/30 08:13:15;;;;;;;31.73;14.00;;;;;;;;;;10359993;28;20025;-77
2023/01/30 08:18:15;;;;;;;36.60;14.73;;;;;;;;;;10375991;28;20072;-77
2023/01/30 08:23:16;;;;;;;42.63;15.98;;;;;;;;;;10375219;28;20096;-75
2023/01/30 08:28:16;;;;;;;44.03;17.85;;;;;;;;;;10359065;28;20018;-73
2023/01/30 08:33:16;;;;;;;36.20;16.20;;;;;;;;;;10399399;28;20060;-75
2023/01/30 08:38:16;;;;;;;38.77;14.87;;;;;;;;;;10400825;28;20029;-73
2023/01/30 08:43:17;;;;;;;36.63;15.98;;;;;;;;;;10399187;28;20045;-75
2023/01/30 08:48:17;;;;;;;33.50;16.10;;;;;;;;;;10399400;28;20022;-75
2023/01/30 08:53:17;;;;;;;30.08;12.80;;;;;;;;;;10375427;28;20032;-73
2023/01/30 08:58:18;;;;;;;32.13;12.65;;;;;;;;;;10374325;28;20019;-78
2023/01/30 09:03:18;;;;;;;26.83;11.10;;;;;;;;;;10374689;28;20119;-78
2023/01/30 09:08:19;;;;;;;26.42;10.93;;;;;;;;;;10358185;28;20172;-71
2023/01/30 09:13:19;;;;;;;27.23;11.40;;;;;;;;;;10358194;28;20029;-76
2023/01/30 09:18:19;;;;;;;29.70;12.20;;;;;;;;;;10364362;28;20083;-80
2023/01/30 09:23:20;;;;;;;22.43;9.27;;;;;;;;;;10366056;28;20475;-74
2023/01/30 09:28:20;;;;;;;22.70;9.98;;;;;;;;;;10366254;28;20944;-76
2023/01/30 09:33:20;;;;;;;22.55;9.05;;;;;;;;;;10365406;28;20403;-75
2023/01/30 09:38:20;;;;;;;27.23;11.73;;;;;;;;;;10397221;28;20047;-76
2023/01/30 09:43:27;;;;;;;28.85;12.48;;;;;;;;;;10401216;28;20077;-74
2023/01/30 09:48:52;;;;;;;26.63;10.63;;;;;;;;;;10365121;28;20026;-75
2023/01/30 09:53:58;;;;;;;27.23;10.85;;;;;;;;;;10369766;28;20022;-74
2023/01/30 09:59:00;;;;;;;24.08;11.25;;;;;;;;;;10389697;28;20415;-73
2023/01/30 10:04:05;;;;;;;27.60;10.15;;;;;;;;;;10421867;28;20036;-70
2023/01/30 10:09:32;;;;;;;32.20;11.88;;;;;;;;;;10387192;28;20044;-71
2023/01/30 10:14:34;;;;;;;27.98;10.80;;;;;;;;;;10363345;28;20200;-73
2023/01/30 10:19:44;;;;;;;34.22;11.90;;;;;;;;;;10364052;28;20034;-73
2023/01/30 10:25:03;;;;;;;31.80;12.43;;;;;;;;;;10363121;28;20104;-75
2023/01/30 10:30:05;;;;;;;26.92;9.85;;;;;;;;;;10376703;28;20025;-72
2023/01/30 10:35:09;;;;;;;33.75;11.55;;;;;;;;;;10404531;28;20037;-75
2023/01/30 10:40:27;;;;;;;25.92;12.38;;;;;;;;;;10420990;28;20107;-75
2023/01/30 10:45:36;;;;;;;30.05;12.52;;;;;;;;;;10406887;28;20066;-72
2023/01/30 10:50:40;;;;;;;34.42;14.73;;;;;;;;;;10362620;28;20021;-72
2023/01/30 10:55:46;;;;;;;36.47;12.07;;;;;;;;;;10363115;28;20026;-76
2023/01/30 11:00:53;;;;;;;29.83;11.77;;;;;;;;;;10361946;28;20068;-72
2023/01/30 11:06:15;;;;;;;30.15;11.70;;;;;;;;;;10363477;28;20079;-74
2023/01/30 11:11:22;;;;;;;41.22;12.55;;;;;;;;;;10383102;28;20021;-75
2023/01/30 11:16:22;;;;;;;26.98;11.57;;;;;;;;;;10402712;28;20025;-73
2023/01/30 11:21:24;;;;;;;31.17;12.23;;;;;;;;;;10402674;28;20498;-72
2023/01/30 11:26:29;;;;;;;29.80;10.65;;;;;;;;;;10419483;28;20083;-77
2023/01/30 11:31:29;;;;;;;37.22;12.80;;;;;;;;;;10418749;28;20105;-75
2023/01/30 11:36:32;;;;;;;32.70;13.03;;;;;;;;;;10389430;28;20032;-73
2023/01/30 11:41:32;;;;;;;31.60;12.60;;;;;;;;;;10377220;28;20111;-78
2023/01/30 11:46:34;;;;;;;26.42;11.32;;;;;;;;;;10376938;28;20030;-76
2023/01/30 11:51:35;;;;;;;37.95;12.40;;;;;;;;;;10365175;28;20096;-77
2023/01/30 11:56:43;;;;;;;30.60;12.13;;;;;;;;;;10379411;28;20026;-81
2023/01/30 12:01:44;;;;;;;35.75;12.93;;;;;;;;;;10400429;28;20479;-72
2023/01/30 12:06:44;;;;;;;37.08;13.60;;;;;;;;;;10400458;28;20026;-72
2023/01/30 12:11:44;;;;;;;34.17;13.85;;;;;;;;;;10400206;28;20021;-72
2023/01/30 12:16:45;;;;;;;29.73;12.40;;;;;;;;;;10395084;28;20025;-72
2023/01/30 12:21:51;;;;;;;31.00;12.27;;;;;;;;;;10375803;28;20026;-73
2023/01/30 12:27:00;;;;;;;39.65;12.95;;;;;;;;;;10358951;28;20036;-73
2023/01/30 12:32:12;;;;;;;26.60;12.52;;;;;;;;;;10387779;28;20024;-75
2023/01/30 12:37:31;;;;;;;31.40;13.35;;;;;;;;;;10416593;28;20123;-73
2023/01/30 12:42:46;;;;;;;26.88;12.75;;;;;;;;;;10381847;28;20041;-75
2023/01/30 12:48:02;;;;;;;29.10;12.60;;;;;;;;;;10340684;28;20060;-75
2023/01/30 12:53:17;;;;;;;30.17;11.15;;;;;;;;;;10339364;28;20057;-77
2023/01/30 12:58:19;;;;;;;38.78;14.80;;;;;;;;;;10377142;28;20044;-75
2023/01/30 13:03:28;;;;;;;30.40;12.65;;;;;;;;;;10382425;28;20025;-76
2023/01/30 13:08:28;;;;;;;25.95;10.02;;;;;;;;;;10353978;28;20026;-74
2023/01/30 13:13:29;;;;;;;32.30;13.07;;;;;;;;;;10353564;28;20026;-72
2023/01/30 13:18:39;;;;;;;34.70;15.13;;;;;;;;;;10372736;28;20037;-78
2023/01/30 13:23:59;;;;;;;29.35;11.95;;;;;;;;;;10366214;28;20024;-74
2023/01/30 13:29:04;;;;;;;31.33;13.55;;;;;;;;;;10368597;28;21145;-72
2023/01/30 13:34:06;;;;;;;34.50;12.35;;;;;;;;;;10367891;28;20041;-75
2023/01/30 13:39:12;;;;;;;35.05;15.40;;;;;;;;;;10355269;28;20036;-78
2023/01/30 13:44:29;;;;;;;25.15;11.93;;;;;;;;;;10370743;28;20034;-76
2023/01/30 13:49:37;;;;;;;35.47;13.13;;;;;;;;;;10355682;28;20064;-73
2023/01/30 13:54:44;;;;;;;38.80;14.63;;;;;;;;;;10370880;28;20022;-76
2023/01/30 14:00:03;;;;;;;36.75;14.90;;;;;;;;;;10345174;28;20117;-70
2023/01/30 14:05:04;;;;;;;31.75;13.77;;;;;;;;;;10371928;28;20030;-76
2023/01/30 14:10:07;;;;;;;48.95;16.33;;;;;;;;;;10363350;28;20455;-76
2023/01/30 14:15:14;;;;;;;38.25;13.50;;;;;;;;;;10389061;28;20022;-76
2023/01/30 14:20:16;;;;;;;35.30;14.70;;;;;;;;;;10421157;28;20029;-71
2023/01/30 14:25:25;;;;;;;35.63;15.00;;;;;;;;;;10398607;28;20033;-75
2023/01/30 14:30:48;;;;;;;37.25;14.65;;;;;;;;;;10364806;28;20122;-72
2023/01/30 14:35:57;;;;;;;31.42;13.20;;;;;;;;;;10361150;28;20017;-73
2023/01/30 14:40:58;;;;;;;44.72;15.70;;;;;;;;;;10360813;28;20054;-75
2023/01/30 14:46:04;;;;;;;34.35;14.40;;;;;;;;;;10360263;28;20083;-70
2023/01/30 14:51:11;;;;;;;48.25;15.52;;;;;;;;;;10378663;28;20021;-76
2023/01/30 14:56:11;;;;;;;40.80;16.08;;;;;;;;;;10363758;28;20415;-72
2023/01/30 15:01:11;;;;;;;33.47;14.60;;;;;;;;;;10363017;28;20030;-73
2023/01/30 15:06:11;;;;;;;36.55;15.07;;;;;;;;;;10400747;28;20656;-76
2023/01/30 15:11:25;;;;;;;36.85;15.93;;;;;;;;;;10392728;28;20579;-72
2023/01/30 15:16:44;;;;;;;38.33;14.18;;;;;;;;;;10377876;28;20514;-71
2023/01/30 15:22:00;;;;;;;42.47;14.65;;;;;;;;;;10377582;28;20084;-73
2023/01/30 15:27:00;;;;;;;33.00;13.65;;;;;;;;;;10364607;28;20036;-73
2023/01/30 15:32:02;;;;;;;43.55;16.17;;;;;;;;;;10376031;28;20400;-71
2023/01/30 15:37:02;;;;;;;40.65;14.32;;;;;;;;;;10376237;28;20049;-77
2023/01/30 15:42:05;;;;;;;35.92;14.63;;;;;;;;;;10362406;28;20495;-72
2023/01/30 15:47:11;;;;;;;39.55;15.75;;;;;;;;;;10358179;28;20420;-77
2023/01/30 15:52:14;;;;;;;41.08;17.25;;;;;;;;;;10373174;28;20503;-76
2023/01/30 15:57:19;;;;;;;45.72;16.67;;;;;;;;;;10357697;28;20026;-75
2023/01/30 16:02:33;;;;;;;35.30;15.75;;;;;;;;;;10375613;28;20042;-73
2023/01/30 16:07:34;;;;;;;41.60;16.98;;;;;;;;;;10406966;28;20061;-77
2023/01/30 16:12:39;;;;;;;39.85;19.35;;;;;;;;;;10370632;28;20461;-79
2023/01/30 16:17:39;;;;;;;40.67;17.02;;;;;;;;;;10394736;28;20113;-76
2023/01/30 16:22:41;;;;;;;43.30;18.23;;;;;;;;;;10359486;28;20348;-76
2023/01/30 16:27:47;;;;;;;44.20;18.73;;;;;;;;;;10357904;28;20026;-72
2023/01/30 16:32:47;;;;;;;43.50;18.80;;;;;;;;;;10375447;28;20045;-71
2023/01/30 16:37:47;;;;;;;49.83;19.93;;;;;;;;;;10359783;28;20034;-73
2023/01/30 16:43:00;;;;;;;47.50;19.13;;;;;;;;;;10375386;28;20061;-72
2023/01/30 16:48:16;;;;;;;46.75;17.98;;;;;;;;;;10415626;28;20021;-75
2023/01/30 16:53:20;;;;;;;53.42;18.45;;;;;;;;;;10400394;28;20142;-75
2023/01/30 16:58:21;;;;;;;41.42;17.20;;;;;;;;;;10394043;28;20396;-69
2023/01/30 17:03:24;;;;;;;43.50;18.40;;;;;;;;;;10359861;28;20037;-71
2023/01/30 17:08:30;;;;;;;51.42;20.75;;;;;;;;;;10367685;28;20069;-79
2023/01/30 17:13:40;;;;;;;38.75;17.27;;;;;;;;;;10356501;28;20061;-72
2023/01/30 17:18:40;;;;;;;38.88;17.90;;;;;;;;;;10340090;28;20120;-74
2023/01/30 17:23:45;;;;;;;47.47;20.50;;;;;;;;;;10365576;28;20037;-71
2023/01/30 17:28:45;;;;;;;42.17;17.30;;;;;;;;;;10370421;28;20384;-70
2023/01/30 17:33:46;;;;;;;41.95;16.77;;;;;;;;;;10336809;28;20157;-73
2023/01/30 17:38:46;;;;;;;45.10;18.27;;;;;;;;;;10353663;28;20025;-75
2023/01/30 17:43:46;;;;;;;40.73;17.67;;;;;;;;;;10354366;28;20042;-74
2023/01/30 17:48:47;;;;;;;40.47;16.03;;;;;;;;;;10359216;28;20703;-70
2023/01/30 17:53:47;;;;;;;47.70;16.90;;;;;;;;;;10372524;28;20480;-73
2023/01/30 17:58:49;;;;;;;41.67;18.38;;;;;;;;;;10361349;28;20045;-73
2023/01/30 18:03:49;;;;;;;45.17;17.70;;;;;;;;;;10331547;28;20508;-75
2023/01/30 18:08:50;;;;;;;41.80;17.77;;;;;;;;;;10355591;28;20026;-72
2023/01/30 18:13:50;;;;;;;37.85;16.67;;;;;;;;;;10354562;28;20022;-76
2023/01/30 18:18:50;;;;;;;42.35;16.75;;;;;;;;;;10329527;28;20050;-74
2023/01/30 18:23:50;;;;;;;37.22;15.93;;;;;;;;;;10353717;28;20088;-71
2023/01/30 18:28:51;;;;;;;40.55;17.08;;;;;;;;;;10332095;28;20550;-75
2023/01/30 18:33:52;;;;;;;39.00;15.37;;;;;;;;;;10355713;28;20026;-73
2023/01/30 18:38:52;;;;;;;39.65;15.48;;;;;;;;;;10348463;28;20540;-71
2023/01/30 18:43:54;;;;;;;44.67;17.70;;;;;;;;;;10331719;28;20039;-72
2023/01/30 18:48:54;;;;;;;44.33;16.95;;;;;;;;;;10358032;28;20027;-71
2023/01/30 18:53:55;;;;;;;44.40;18.17;;;;;;;;;;10399669;23;20058;-72
2023/01/30 18:58:56;;;;;;;44.28;17.67;;;;;;;;;;10401332;28;20038;-74
2023/01/30 19:03:58;;;;;;;51.10;18.70;;;;;;;;;;10383456;28;20026;-74
2023/01/30 19:08:58;;;;;;;62.28;23.15;;;;;;;;;;10378531;28;20482;-71
2023/01/30 19:13:59;;;;;;;49.07;19.97;;;;;;;;;;10374688;28;20033;-74
2023/01/30 19:18:59;;;;;;;49.47;20.13;;;;;;;;;;10388511;28;20573;-73
2023/01/30 19:24:05;;;;;;;50.13;22.30;;;;;;;;;;10378990;28;20029;-80
2023/01/30 19:29:05;;;;;;;54.53;20.05;;;;;;;;;;10374213;28;20339;-74
2023/01/30 19:34:06;;;;;;;63.33;22.43;;;;;;;;;;10370998;28;20397;-75
2023/01/30 19:39:08;;;;;;;56.28;23.60;;;;;;;;;;10363958;28;20482;-70
2023/01/30 19:44:09;;;;;;;63.00;24.98;;;;;;;;;;10382999;28;20039;-75
2023/01/30 19:49:10;;;;;;;56.78;21.50;;;;;;;;;;10377592;28;20029;-71
2023/01/30 19:54:11;;;;;;;54.75;23.48;;;;;;;;;;10387230;28;20057;-75
2023/01/30 19:59:11;;;;;;;60.90;23.33;;;;;;;;;;10391688;28;20048;-72
2023/01/30 20:04:12;;;;;;;56.38;22.08;;;;;;;;;;10387907;28;20032;-72
2023/01/30 20:09:14;;;;;;;69.30;22.77;;;;;;;;;;10386801;28;20025;-73
2023/01/30 20:14:15;;;;;;;54.47;19.40;;;;;;;;;;10382919;28;20638;-72
2023/01/30 20:19:15;;;;;;;55.63;19.55;;;;;;;;;;10385891;28;20029;-71
2023/01/30 20:24:16;;;;;;;56.85;20.40;;;;;;;;;;10390010;28;20564;-70
2023/01/30 20:29:16;;;;;;;50.95;17.67;;;;;;;;;;10392669;28;20026;-72
2023/01/30 20:34:17;;;;;;;51.67;21.77;;;;;;;;;;10391899;28;20112;-72
2023/01/30 20:39:19;;;;;;;58.00;20.57;;;;;;;;;;10403661;28;20041;-71
2023/01/30 20:44:19;;;;;;;56.95;20.85;;;;;;;;;;10386973;28;20021;-70
2023/01/30 20:49:20;;;;;;;45.63;18.67;;;;;;;;;;10392035;28;20462;-74
2023/01/30 20:54:21;;;;;;;45.55;18.90;;;;;;;;;;10399576;28;20296;-70
2023/01/30 20:59:23;;;;;;;50.42;16.70;;;;;;;;;;10405709;28;20612;-73
2023/01/30 21:04:23;;;;;;;58.75;20.08;;;;;;;;;;10419325;28;20025;-69
2023/01/30 21:09:23;;;;;;;54.65;22.65;;;;;;;;;;10415340;28;20025;-73
2023/01/30 21:14:23;;;;;;;57.20;21.53;;;;;;;;;;10423714;28;20032;-75
2023/01/30 21:19:24;;;;;;;53.58;21.75;;;;;;;;;;10434424;28;20359;-77
2023/01/30 21:24:26;;;;;;;58.77;21.53;;;;;;;;;;10423138;28;20040;-77
2023/01/30 21:29:27;;;;;;;57.90;24.15;;;;;;;;;;10427136;28;20021;-77
2023/01/30 21:34:27;;;;;;;56.60;21.95;;;;;;;;;;10419420;28;20029;-73
2023/01/30 21:44:47;;;;;;;55.22;22.83;;;;;;;;;;10411089;28;20065;-75
2023/01/30 21:49:47;;;;;;;60.92;25.25;;;;;;;;;;10406728;28;20025;-72
2023/01/30 21:54:47;;;;;;;64.15;25.85;;;;;;;;;;10402659;28;20049;-74
2023/01/30 21:59:47;;;;;;;69.57;26.05;;;;;;;;;;10423127;28;20381;-75
2023/01/30 22:04:48;;;;;;;68.50;28.87;;;;;;;;;;10434061;28;20025;-75
2023/01/30 22:09:48;;;;;;;60.67;25.07;;;;;;;;;;10433040;28;20494;-72
2023/01/30 22:14:48;;;;;;;67.33;27.50;;;;;;;;;;10415367;28;20465;-71
2023/01/30 22:19:49;;;;;;;69.40;27.70;;;;;;;;;;10420064;28;20039;-73
2023/01/30 22:24:49;;;;;;;67.57;27.00;;;;;;;;;;10418138;28;20024;-71
2023/01/30 22:29:49;;;;;;;65.65;26.77;;;;;;;;;;10425055;28;20022;-74
2023/01/30 22:34:50;;;;;;;64.43;27.60;;;;;;;;;;10416282;28;20419;-75
2023/01/30 22:39:50;;;;;;;70.90;26.08;;;;;;;;;;10419801;28;20275;-78
2023/01/30 22:44:50;;;;;;;63.45;24.92;;;;;;;;;;10413975;28;20171;-71
2023/01/30 22:49:50;;;;;;;64.90;24.88;;;;;;;;;;10414003;28;20022;-73
2023/01/30 22:54:51;;;;;;;59.58;24.42;;;;;;;;;;10420738;28;20087;-72
2023/01/30 22:59:51;;;;;;;64.13;26.67;;;;;;;;;;10430279;28;20153;-73
2023/01/30 23:04:51;;;;;;;68.80;28.95;;;;;;;;;;10433144;28;20021;-72
2023/01/30 23:09:51;;;;;;;53.40;24.55;;;;;;;;;;10426623;28;20162;-76
2023/01/30 23:14:52;;;;;;;70.50;28.45;;;;;;;;;;10440106;28;20037;-73
2023/01/30 23:19:52;;;;;;;62.33;27.70;;;;;;;;;;10441454;28;20029;-74
2023/01/30 23:24:53;;;;;;;63.85;22.98;;;;;;;;;;10443155;28;20029;-74
2023/01/30 23:29:53;;;;;;;63.05;23.23;;;;;;;;;;10442212;28;20423;-76
2023/01/30 23:34:53;;;;;;;66.07;25.20;;;;;;;;;;10441506;28;20024;-68
2023/01/30 23:39:53;;;;;;;49.78;22.27;;;;;;;;;;10444646;28;20029;-72
2023/01/30 23:44:54;;;;;;;48.47;22.63;;;;;;;;;;10442504;28;20029;-74
2023/01/30 23:49:54;;;;;;;56.10;23.52;;;;;;;;;;10441577;28;20067;-73
2023/01/30 23:54:54;;;;;;;51.38;21.25;;;;;;;;;;10441269;28;20033;-75
2023/01/30 23:59:54;;;;;;;44.67;19.23;;;;;;;;;;10442303;28;20019;-74
